Time;durP1;ratioP1;P1;durP2;ratioP2;P2;SDS_P1;SDS_P2;PMS_P1;PMS_P2;Temp;Humidity;BMP_temperature;BMP_pressure;BME280_temperature;BME280_humidity;BME280_pressure;Samples;Min_cycle;Max_cycle;Signal;HPM_P1;HPM_P2
2023/05/24 00:00:12;;;;;;;19.92;3.78;;;;;;;;;;4978606;28;25072;-73
2023/05/24 00:02:40;;;;;;;13.52;3.92;;;;;;;;;;4974191;28;25061;-76
2023/05/24 00:05:09;;;;;;;16.90;3.33;;;;;;;;;;4976336;28;25071;-73
2023/05/24 00:07:35;;;;;;;15.07;3.60;;;;;;;;;;4973777;28;25075;-75
2023/05/24 00:10:01;;;;;;;17.25;4.60;;;;;;;;;;4973306;28;25073;-74
2023/05/24 00:12:27;;;;;;;14.30;4.38;;;;;;;;;;4972272;28;25064;-74
2023/05/24 00:14:53;;;;;;;12.60;3.78;;;;;;;;;;4971754;28;25108;-74
2023/05/24 00:17:20;;;;;;;12.98;3.53;;;;;;;;;;4967543;28;25100;-74
2023/05/24 00:19:46;;;;;;;11.93;3.15;;;;;;;;;;4973300;28;25115;-74
2023/05/24 00:22:12;;;;;;;15.88;4.45;;;;;;;;;;4972761;28;25106;-75
2023/05/24 00:24:39;;;;;;;16.05;3.17;;;;;;;;;;4973047;28;25095;-75
2023/05/24 00:27:05;;;;;;;24.23;4.18;;;;;;;;;;4972848;28;25095;-75
2023/05/24 00:29:31;;;;;;;19.42;4.22;;;;;;;;;;4973752;28;25072;-75
2023/05/24 00:31:58;;;;;;;13.90;3.85;;;;;;;;;;4977278;28;25085;-74
2023/05/24 00:34:24;;;;;;;15.50;3.38;;;;;;;;;;4973887;28;25077;-74
2023/05/24 00:36:50;;;;;;;13.75;3.20;;;;;;;;;;4973463;28;25141;-73
2023/05/24 00:39:16;;;;;;;16.05;4.75;;;;;;;;;;4970620;28;25063;-74
2023/05/24 00:41:42;;;;;;;13.85;3.05;;;;;;;;;;4974656;28;25059;-74
2023/05/24 00:44:09;;;;;;;17.98;3.65;;;;;;;;;;4980224;28;25058;-75
2023/05/24 00:46:35;;;;;;;13.48;3.30;;;;;;;;;;4979924;28;25113;-73
2023/05/24 00:49:02;;;;;;;19.13;3.85;;;;;;;;;;4977014;28;25067;-74
2023/05/24 00:51:29;;;;;;;14.80;4.18;;;;;;;;;;4975039;28;25052;-74
2023/05/24 00:53:55;;;;;;;17.20;3.50;;;;;;;;;;4972860;28;25147;-72
2023/05/24 00:56:21;;;;;;;13.60;3.22;;;;;;;;;;4977291;28;25080;-74
2023/05/24 00:58:49;;;;;;;12.88;4.00;;;;;;;;;;4984024;28;25060;-74
2023/05/24 01:01:15;;;;;;;17.40;3.92;;;;;;;;;;4983832;28;25065;-73
2023/05/24 01:03:42;;;;;;;17.50;3.95;;;;;;;;;;4986556;28;25077;-72
2023/05/24 01:06:08;;;;;;;22.60;4.70;;;;;;;;;;4977737;28;25092;-74
2023/05/24 01:08:43;;;;;;;12.77;4.05;;;;;;;;;;4976031;28;25085;-73
2023/05/24 01:11:35;;;;;;;14.40;3.95;;;;;;;;;;4981942;28;25071;-74
2023/05/24 01:14:25;;;;;;;16.27;3.63;;;;;;;;;;4974452;28;25078;-75
2023/05/24 01:16:51;;;;;;;21.60;4.18;;;;;;;;;;4962432;28;25055;-75
2023/05/24 01:19:37;;;;;;;14.50;4.13;;;;;;;;;;4973131;28;25064;-74
2023/05/24 01:22:13;;;;;;;16.10;3.90;;;;;;;;;;4973120;28;25050;-76
2023/05/24 01:24:55;;;;;;;15.75;3.47;;;;;;;;;;4973124;28;25066;-75
2023/05/24 01:27:22;;;;;;;11.48;3.20;;;;;;;;;;4969900;28;25069;-74
2023/05/24 01:29:52;;;;;;;13.68;4.30;;;;;;;;;;4971582;28;25079;-75
2023/05/24 01:32:18;;;;;;;18.65;3.72;;;;;;;;;;4968967;28;25133;-75
2023/05/24 01:34:44;;;;;;;17.73;3.53;;;;;;;;;;4972212;28;25061;-74
2023/05/24 01:37:10;;;;;;;21.98;3.63;;;;;;;;;;4971973;28;25143;-74
2023/05/24 01:39:36;;;;;;;9.20;3.33;;;;;;;;;;4970704;28;25110;-73
2023/05/24 01:42:12;;;;;;;14.48;3.60;;;;;;;;;;4971725;28;25068;-72
2023/05/24 01:44:49;;;;;;;18.73;4.88;;;;;;;;;;4973737;28;25079;-74
2023/05/24 01:47:18;;;;;;;21.58;3.70;;;;;;;;;;4975297;28;25061;-74
2023/05/24 01:49:49;;;;;;;20.48;3.17;;;;;;;;;;4970082;28;25064;-74
2023/05/24 01:52:16;;;;;;;16.77;3.13;;;;;;;;;;4970826;28;25147;-75
2023/05/24 01:54:44;;;;;;;22.73;4.88;;;;;;;;;;4971913;28;25084;-74
2023/05/24 01:57:10;;;;;;;19.20;3.72;;;;;;;;;;4972703;28;25163;-73
2023/05/24 01:59:39;;;;;;;18.70;4.30;;;;;;;;;;4972486;28;25071;-73
2023/05/24 02:02:05;;;;;;;12.05;4.25;;;;;;;;;;4978748;28;25066;-72
2023/05/24 02:04:31;;;;;;;12.52;3.35;;;;;;;;;;4975589;28;25076;-74
2023/05/24 02:06:57;;;;;;;15.15;4.00;;;;;;;;;;4975484;28;25129;-76
2023/05/24 02:09:23;;;;;;;22.95;4.57;;;;;;;;;;4972626;28;25052;-74
2023/05/24 02:11:49;;;;;;;15.88;3.55;;;;;;;;;;4972815;28;25060;-74
2023/05/24 02:14:16;;;;;;;10.90;4.03;;;;;;;;;;4974674;28;25070;-74
2023/05/24 02:16:45;;;;;;;11.77;3.22;;;;;;;;;;4976940;28;25070;-73
2023/05/24 02:19:11;;;;;;;21.80;3.60;;;;;;;;;;4975298;28;25147;-74
2023/05/24 02:21:37;;;;;;;12.10;3.78;;;;;;;;;;4971221;28;25127;-74
2023/05/24 02:24:03;;;;;;;20.35;4.45;;;;;;;;;;4974400;28;25084;-71
2023/05/24 02:26:29;;;;;;;24.92;4.85;;;;;;;;;;4973073;28;25082;-75
2023/05/24 02:28:55;;;;;;;18.30;4.45;;;;;;;;;;4975029;28;25140;-74
2023/05/24 02:31:21;;;;;;;20.95;4.05;;;;;;;;;;4973274;28;25067;-75
2023/05/24 02:33:47;;;;;;;20.33;4.45;;;;;;;;;;4973607;28;25152;-76
2023/05/24 02:36:13;;;;;;;14.95;3.70;;;;;;;;;;4974976;28;25057;-74
2023/05/24 02:38:39;;;;;;;19.10;4.47;;;;;;;;;;4973816;28;25166;-73
2023/05/24 02:41:05;;;;;;;16.25;4.22;;;;;;;;;;4973717;28;25086;-75
2023/05/24 02:43:31;;;;;;;18.75;4.55;;;;;;;;;;4973111;28;25131;-74
2023/05/24 02:45:57;;;;;;;10.27;3.42;;;;;;;;;;4973116;28;25399;-72
2023/05/24 02:48:23;;;;;;;25.67;4.65;;;;;;;;;;4973991;28;25073;-74
2023/05/24 02:50:49;;;;;;;12.88;4.07;;;;;;;;;;4974212;28;25069;-74
2023/05/24 02:53:15;;;;;;;17.05;4.05;;;;;;;;;;4973843;28;25057;-73
2023/05/24 02:55:42;;;;;;;15.35;5.05;;;;;;;;;;4975446;28;25062;-74
2023/05/24 02:58:08;;;;;;;11.73;3.08;;;;;;;;;;4981597;28;25079;-77
2023/05/24 03:00:34;;;;;;;21.58;4.68;;;;;;;;;;4974239;28;25126;-74
2023/05/24 03:03:01;;;;;;;19.67;3.55;;;;;;;;;;4975311;28;25052;-74
2023/05/24 03:05:28;;;;;;;9.68;4.22;;;;;;;;;;4974925;28;25046;-74
2023/05/24 03:07:54;;;;;;;22.33;3.80;;;;;;;;;;4973897;28;25096;-74
2023/05/24 03:10:20;;;;;;;16.85;4.13;;;;;;;;;;4973800;28;25090;-74
2023/05/24 03:12:46;;;;;;;16.13;3.40;;;;;;;;;;4977556;28;25100;-74
2023/05/24 03:15:12;;;;;;;17.88;3.83;;;;;;;;;;4975135;28;25136;-75
2023/05/24 03:17:38;;;;;;;14.48;3.78;;;;;;;;;;4976426;28;25054;-75
2023/05/24 03:20:04;;;;;;;12.73;3.22;;;;;;;;;;4976063;28;25052;-74
2023/05/24 03:22:30;;;;;;;15.40;3.80;;;;;;;;;;4974793;28;25064;-73
2023/05/24 03:24:57;;;;;;;19.25;4.35;;;;;;;;;;4975633;28;25075;-74
2023/05/24 03:27:23;;;;;;;15.15;3.70;;;;;;;;;;4974147;28;25054;-74
2023/05/24 03:29:49;;;;;;;22.75;5.18;;;;;;;;;;4976642;28;25062;-75
2023/05/24 03:32:15;;;;;;;16.88;4.28;;;;;;;;;;4973500;28;25079;-72
2023/05/24 03:34:41;;;;;;;18.10;3.92;;;;;;;;;;4973630;28;25070;-73
2023/05/24 03:37:07;;;;;;;16.15;4.65;;;;;;;;;;4970961;28;25102;-74
2023/05/24 03:39:33;;;;;;;18.33;4.55;;;;;;;;;;4979779;28;25098;-73
2023/05/24 03:41:59;;;;;;;16.63;3.80;;;;;;;;;;4975673;28;25156;-75
2023/05/24 03:44:25;;;;;;;12.73;4.40;;;;;;;;;;4974633;28;25064;-74
2023/05/24 03:46:51;;;;;;;13.63;4.00;;;;;;;;;;4974662;28;25083;-76
2023/05/24 03:49:17;;;;;;;21.75;4.57;;;;;;;;;;4972862;28;25064;-74
2023/05/24 03:51:43;;;;;;;15.43;3.97;;;;;;;;;;4983359;28;25133;-75
2023/05/24 03:54:09;;;;;;;15.52;3.53;;;;;;;;;;4975775;28;25055;-72
2023/05/24 03:56:37;;;;;;;26.75;5.05;;;;;;;;;;4974864;28;25090;-74
2023/05/24 03:59:03;;;;;;;23.95;5.05;;;;;;;;;;4979379;28;25056;-75
2023/05/24 04:01:30;;;;;;;12.32;3.65;;;;;;;;;;4991457;28;25078;-74
2023/05/24 04:04:00;;;;;;;21.45;4.60;;;;;;;;;;4990782;28;25073;-74
2023/05/24 04:06:27;;;;;;;11.40;3.90;;;;;;;;;;4990306;28;25059;-75
2023/05/24 04:08:54;;;;;;;15.20;4.43;;;;;;;;;;4986971;28;25112;-74
2023/05/24 04:11:21;;;;;;;11.00;4.07;;;;;;;;;;4984521;28;25080;-76
2023/05/24 04:13:47;;;;;;;18.65;3.65;;;;;;;;;;4983918;28;25069;-74
2023/05/24 04:16:13;;;;;;;16.13;4.25;;;;;;;;;;4986656;28;25073;-75
2023/05/24 04:18:39;;;;;;;13.73;4.40;;;;;;;;;;4979779;28;25082;-76
2023/05/24 04:21:05;;;;;;;14.20;4.05;;;;;;;;;;4973194;28;25087;-74
2023/05/24 04:23:31;;;;;;;16.75;4.43;;;;;;;;;;4976956;28;25102;-73
2023/05/24 04:25:57;;;;;;;12.68;4.38;;;;;;;;;;4975219;28;25071;-74
2023/05/24 04:28:25;;;;;;;22.30;4.82;;;;;;;;;;4975215;28;25059;-73
2023/05/24 04:30:51;;;;;;;13.50;3.95;;;;;;;;;;4974966;28;25135;-74
2023/05/24 04:33:17;;;;;;;13.15;4.75;;;;;;;;;;4974280;28;25057;-74
2023/05/24 04:35:44;;;;;;;20.70;4.75;;;;;;;;;;4974232;28;25081;-75
2023/05/24 04:38:11;;;;;;;18.30;4.40;;;;;;;;;;4976255;28;25069;-74
2023/05/24 04:40:37;;;;;;;17.15;4.05;;;;;;;;;;4975761;28;25070;-74
2023/05/24 04:43:06;;;;;;;17.27;4.35;;;;;;;;;;4974321;28;25074;-73
2023/05/24 04:45:32;;;;;;;18.88;6.07;;;;;;;;;;4974751;28;25085;-73
2023/05/24 04:47:58;;;;;;;19.63;4.88;;;;;;;;;;4974303;28;25058;-74
2023/05/24 04:50:24;;;;;;;18.00;4.50;;;;;;;;;;4978314;28;25149;-73
2023/05/24 04:52:50;;;;;;;22.42;4.90;;;;;;;;;;4975564;28;25249;-73
2023/05/24 04:55:16;;;;;;;14.77;5.07;;;;;;;;;;4974539;28;25076;-74
2023/05/24 04:57:43;;;;;;;21.95;5.50;;;;;;;;;;4975010;28;25113;-72
2023/05/24 05:00:09;;;;;;;19.52;5.07;;;;;;;;;;4973455;28;25048;-72
2023/05/24 05:02:35;;;;;;;27.38;4.97;;;;;;;;;;4973809;28;25098;-75
2023/05/24 05:05:01;;;;;;;15.43;4.40;;;;;;;;;;4977723;28;25100;-69
2023/05/24 05:07:30;;;;;;;19.17;4.93;;;;;;;;;;4976369;28;25072;-73
2023/05/24 05:09:56;;;;;;;19.58;4.65;;;;;;;;;;4974917;28;25072;-71
2023/05/24 05:12:22;;;;;;;20.17;5.30;;;;;;;;;;4977248;28;25096;-72
2023/05/24 05:14:49;;;;;;;24.02;4.28;;;;;;;;;;4972575;28;25077;-74
2023/05/24 05:17:15;;;;;;;29.33;6.43;;;;;;;;;;4973669;28;25060;-74
2023/05/24 05:19:41;;;;;;;18.92;4.82;;;;;;;;;;4973655;28;25082;-73
2023/05/24 05:22:07;;;;;;;18.52;3.72;;;;;;;;;;4971405;28;25073;-70
2023/05/24 05:24:33;;;;;;;15.55;5.10;;;;;;;;;;4972867;28;25060;-75
2023/05/24 05:26:59;;;;;;;23.88;5.82;;;;;;;;;;4974183;28;25063;-75
2023/05/24 05:29:25;;;;;;;21.98;5.63;;;;;;;;;;4976105;28;25059;-72
2023/05/24 05:31:51;;;;;;;20.17;4.47;;;;;;;;;;4988791;28;25062;-74
2023/05/24 05:34:18;;;;;;;20.35;4.70;;;;;;;;;;4985949;28;25099;-73
2023/05/24 05:36:44;;;;;;;24.95;5.32;;;;;;;;;;4975899;28;25069;-74
2023/05/24 05:39:10;;;;;;;23.85;6.30;;;;;;;;;;4980048;28;25079;-73
2023/05/24 05:41:38;;;;;;;21.55;4.57;;;;;;;;;;4978889;28;25069;-74
2023/05/24 05:44:04;;;;;;;25.45;4.85;;;;;;;;;;4971582;28;25076;-74
2023/05/24 05:46:30;;;;;;;22.15;4.60;;;;;;;;;;4972173;28;25066;-75
2023/05/24 05:48:56;;;;;;;23.60;4.90;;;;;;;;;;4970908;28;25054;-73
2023/05/24 05:51:22;;;;;;;23.98;5.13;;;;;;;;;;4963325;28;25045;-73
2023/05/24 05:53:48;;;;;;;22.85;4.97;;;;;;;;;;4961223;28;25114;-70
2023/05/24 05:56:14;;;;;;;17.60;4.78;;;;;;;;;;4963064;28;25060;-72
2023/05/24 05:58:40;;;;;;;20.75;4.20;;;;;;;;;;4962101;28;25057;-74
2023/05/24 06:01:06;;;;;;;23.30;4.57;;;;;;;;;;4965123;28;25192;-74
2023/05/24 06:03:32;;;;;;;20.98;4.53;;;;;;;;;;4963876;28;25122;-73
2023/05/24 06:05:58;;;;;;;17.38;3.33;;;;;;;;;;4964998;28;25079;-70
2023/05/24 06:08:24;;;;;;;21.83;5.57;;;;;;;;;;4964347;28;25053;-71
2023/05/24 06:10:50;;;;;;;19.42;4.38;;;;;;;;;;4971979;28;25082;-73
2023/05/24 06:13:16;;;;;;;23.73;4.72;;;;;;;;;;4973658;28;25055;-73
2023/05/24 06:15:42;;;;;;;16.88;5.00;;;;;;;;;;4974355;28;25081;-71
2023/05/24 06:18:07;;;;;;;22.17;6.30;;;;;;;;;;4966325;28;25053;-71
2023/05/24 06:20:33;;;;;;;18.17;4.15;;;;;;;;;;4968954;28;25078;-73
2023/05/24 06:23:00;;;;;;;17.13;4.13;;;;;;;;;;4967401;28;25139;-71
2023/05/24 06:25:28;;;;;;;17.45;4.50;;;;;;;;;;4967133;28;25075;-72
2023/05/24 06:27:54;;;;;;;23.10;4.63;;;;;;;;;;4965919;28;25134;-72
2023/05/24 06:30:20;;;;;;;32.22;6.13;;;;;;;;;;4971076;28;25090;-73
2023/05/24 06:32:46;;;;;;;15.75;4.50;;;;;;;;;;4972507;28;25113;-71
2023/05/24 06:35:12;;;;;;;13.35;3.58;;;;;;;;;;4969149;28;25091;-71
2023/05/24 06:37:38;;;;;;;18.85;4.40;;;;;;;;;;4965976;28;25077;-73
2023/05/24 06:40:06;;;;;;;13.63;4.03;;;;;;;;;;4972762;28;25081;-74
2023/05/24 06:42:33;;;;;;;19.65;4.32;;;;;;;;;;4975703;28;25061;-73
2023/05/24 06:44:58;;;;;;;17.75;4.13;;;;;;;;;;4974771;28;25082;-73
2023/05/24 06:47:24;;;;;;;9.85;3.90;;;;;;;;;;4962959;28;25073;-72
2023/05/24 06:49:50;;;;;;;17.80;3.88;;;;;;;;;;4963751;28;25073;-71
2023/05/24 06:52:16;;;;;;;15.00;4.18;;;;;;;;;;4965722;28;25082;-71
2023/05/24 06:54:42;;;;;;;21.85;4.18;;;;;;;;;;4963533;28;25111;-71
2023/05/24 06:57:08;;;;;;;21.67;4.13;;;;;;;;;;4965069;28;25067;-70
2023/05/24 06:59:35;;;;;;;13.50;4.43;;;;;;;;;;4962623;28;25087;-73
2023/05/24 07:02:00;;;;;;;18.08;4.55;;;;;;;;;;4960604;28;25050;-73
2023/05/24 07:04:27;;;;;;;17.55;3.63;;;;;;;;;;4959367;28;25076;-71
2023/05/24 07:06:53;;;;;;;16.35;3.38;;;;;;;;;;4960609;28;25084;-73
2023/05/24 07:09:19;;;;;;;22.10;5.45;;;;;;;;;;4962647;28;25073;-75
2023/05/24 07:11:45;;;;;;;17.65;4.00;;;;;;;;;;4969776;28;25089;-73
2023/05/24 07:14:11;;;;;;;27.15;5.63;;;;;;;;;;4961947;28;25095;-73
2023/05/24 07:16:37;;;;;;;20.45;4.22;;;;;;;;;;4964804;28;25161;-73
2023/05/24 07:19:03;;;;;;;21.75;4.63;;;;;;;;;;4958034;28;25060;-73
2023/05/24 07:21:30;;;;;;;19.35;4.38;;;;;;;;;;4962921;28;25064;-73
2023/05/24 07:23:56;;;;;;;16.42;4.35;;;;;;;;;;4967620;28;25059;-73
2023/05/24 07:26:22;;;;;;;17.70;4.25;;;;;;;;;;4968569;28;25066;-75
2023/05/24 07:28:48;;;;;;;21.13;4.07;;;;;;;;;;4967827;28;25095;-72
2023/05/24 07:31:15;;;;;;;17.25;4.25;;;;;;;;;;4968165;28;25063;-74
2023/05/24 07:33:41;;;;;;;16.08;3.28;;;;;;;;;;4962003;28;25075;-73
2023/05/24 07:36:07;;;;;;;14.18;3.45;;;;;;;;;;4964854;28;25123;-74
2023/05/24 07:38:33;;;;;;;12.73;4.15;;;;;;;;;;4964979;28;25159;-74
2023/05/24 07:41:00;;;;;;;12.00;3.65;;;;;;;;;;4960540;28;25072;-72
2023/05/24 07:43:26;;;;;;;12.88;3.80;;;;;;;;;;4963780;28;25074;-73
2023/05/24 07:45:52;;;;;;;13.77;4.07;;;;;;;;;;4961244;28;25107;-72
2023/05/24 07:48:22;;;;;;;15.23;4.38;;;;;;;;;;4959701;28;25066;-72
2023/05/24 07:50:48;;;;;;;15.07;4.90;;;;;;;;;;4962876;28;25060;-75
2023/05/24 07:53:15;;;;;;;12.65;3.53;;;;;;;;;;4962838;28;25143;-74
2023/05/24 07:55:40;;;;;;;18.20;4.65;;;;;;;;;;4962576;28;25156;-76
2023/05/24 07:58:07;;;;;;;15.40;4.22;;;;;;;;;;4959020;28;25072;-73
2023/05/24 08:00:33;;;;;;;17.73;4.30;;;;;;;;;;4963302;28;25102;-74
2023/05/24 08:02:59;;;;;;;16.27;4.35;;;;;;;;;;4961125;28;25062;-72
2023/05/24 08:05:25;;;;;;;15.45;4.57;;;;;;;;;;4959830;28;25071;-74
2023/05/24 08:07:52;;;;;;;19.90;6.18;;;;;;;;;;4960002;28;25061;-73
2023/05/24 08:10:18;;;;;;;18.17;4.40;;;;;;;;;;4961105;28;25146;-72
2023/05/24 08:12:44;;;;;;;22.30;5.60;;;;;;;;;;4960550;28;25144;-72
2023/05/24 08:15:11;;;;;;;18.17;5.32;;;;;;;;;;4959673;28;25064;-70
2023/05/24 08:17:40;;;;;;;17.33;4.63;;;;;;;;;;4959163;28;25100;-75
2023/05/24 08:20:12;;;;;;;16.60;4.20;;;;;;;;;;4962244;28;25129;-72
2023/05/24 08:22:38;;;;;;;21.17;5.57;;;;;;;;;;4961400;28;25221;-75
2023/05/24 08:25:04;;;;;;;11.10;3.72;;;;;;;;;;4962169;28;25103;-70
2023/05/24 08:27:31;;;;;;;18.45;4.55;;;;;;;;;;4963072;28;25087;-74
2023/05/24 08:29:57;;;;;;;12.75;3.78;;;;;;;;;;4963193;28;25055;-72
2023/05/24 08:32:23;;;;;;;16.42;4.57;;;;;;;;;;4961745;28;25142;-73
2023/05/24 08:34:49;;;;;;;14.43;4.20;;;;;;;;;;4965282;28;25066;-70
2023/05/24 08:37:19;;;;;;;28.10;5.40;;;;;;;;;;4961075;28;25132;-70
2023/05/24 08:39:45;;;;;;;23.23;5.05;;;;;;;;;;4961142;28;25062;-72
2023/05/24 08:42:11;;;;;;;21.90;4.72;;;;;;;;;;4961444;28;25058;-74
2023/05/24 08:44:40;;;;;;;16.27;4.20;;;;;;;;;;4965576;28;25044;-74
2023/05/24 08:47:07;;;;;;;12.63;4.55;;;;;;;;;;4969169;28;25074;-71
2023/05/24 08:49:36;;;;;;;13.50;4.40;;;;;;;;;;4964544;28;25097;-72
2023/05/24 08:52:02;;;;;;;14.75;3.63;;;;;;;;;;4970193;28;25101;-73
2023/05/24 08:54:28;;;;;;;18.83;4.15;;;;;;;;;;4978632;28;25078;-77
2023/05/24 08:56:55;;;;;;;14.63;4.78;;;;;;;;;;4974800;28;25076;-74
2023/05/24 08:59:22;;;;;;;16.75;4.28;;;;;;;;;;4964304;28;25046;-74
2023/05/24 09:01:52;;;;;;;14.35;4.57;;;;;;;;;;4961874;28;25156;-74
2023/05/24 09:04:19;;;;;;;10.98;3.50;;;;;;;;;;4975820;28;25118;-74
2023/05/24 09:06:46;;;;;;;19.45;4.95;;;;;;;;;;4964173;28;25105;-72
2023/05/24 09:09:13;;;;;;;13.88;5.07;;;;;;;;;;4961172;28;25108;-72
2023/05/24 09:11:40;;;;;;;16.83;4.45;;;;;;;;;;4964919;28;25106;-73
2023/05/24 09:14:06;;;;;;;13.73;4.03;;;;;;;;;;4959189;28;25055;-74
2023/05/24 09:16:32;;;;;;;16.98;4.85;;;;;;;;;;4960278;28;25073;-72
2023/05/24 09:18:58;;;;;;;11.10;4.43;;;;;;;;;;4960374;28;25056;-72
2023/05/24 09:21:25;;;;;;;10.70;4.25;;;;;;;;;;4959674;28;25071;-73
2023/05/24 09:23:51;;;;;;;15.57;3.95;;;;;;;;;;4959964;28;25061;-72
2023/05/24 09:26:17;;;;;;;17.27;3.95;;;;;;;;;;4960700;28;25075;-73
2023/05/24 09:28:43;;;;;;;11.70;3.80;;;;;;;;;;4959672;28;25099;-73
2023/05/24 09:31:09;;;;;;;22.17;5.10;;;;;;;;;;4960479;28;25072;-72
2023/05/24 09:33:35;;;;;;;15.35;3.80;;;;;;;;;;4959650;28;25058;-72
2023/05/24 09:36:02;;;;;;;16.88;3.90;;;;;;;;;;4960413;28;25066;-74
2023/05/24 09:38:28;;;;;;;19.55;4.32;;;;;;;;;;4961238;28;25071;-71
2023/05/24 09:41:20;;;;;;;9.60;3.00;;;;;;;;;;4960661;28;25067;-73
2023/05/24 09:43:48;;;;;;;12.93;4.18;;;;;;;;;;4954842;28;25086;-71
2023/05/24 09:46:20;;;;;;;9.38;3.28;;;;;;;;;;4965402;28;25067;-71
2023/05/24 09:48:46;;;;;;;;;;;;;;;;;;4962543;28;25078;-74
2023/05/24 09:51:13;;;;;;;9.88;3.38;;;;;;;;;;4963920;28;25090;-71
2023/05/24 09:53:44;;;;;;;13.23;3.25;;;;;;;;;;4959475;28;25067;-71
2023/05/24 09:56:09;;;;;;;12.88;4.00;;;;;;;;;;4960498;28;25065;-73
2023/05/24 09:58:36;;;;;;;11.27;3.15;;;;;;;;;;4958525;28;25058;-75
2023/05/24 10:01:06;;;;;;;13.77;3.75;;;;;;;;;;4955983;28;25055;-74
2023/05/24 10:03:32;;;;;;;11.80;3.22;;;;;;;;;;4959340;28;25087;-71
2023/05/24 10:05:59;;;;;;;16.42;3.58;;;;;;;;;;4959015;28;25048;-73
2023/05/24 10:08:25;;;;;;;17.35;3.78;;;;;;;;;;4957438;28;25140;-73
2023/05/24 10:10:51;;;;;;;13.30;3.58;;;;;;;;;;4963941;28;25144;-72
2023/05/24 10:13:18;;;;;;;17.52;4.47;;;;;;;;;;4969107;28;25070;-71
2023/05/24 10:15:44;;;;;;;11.25;3.13;;;;;;;;;;4966548;28;25071;-74
2023/05/24 10:18:10;;;;;;;13.45;3.28;;;;;;;;;;4964867;28;25057;-72
2023/05/24 10:20:36;;;;;;;8.75;3.15;;;;;;;;;;4967523;28;25062;-75
2023/05/24 10:23:08;;;;;;;13.55;3.60;;;;;;;;;;4968216;28;25214;-73
2023/05/24 10:25:34;;;;;;;19.73;4.00;;;;;;;;;;4964838;28;25086;-72
2023/05/24 10:28:02;;;;;;;15.02;3.58;;;;;;;;;;4966000;28;25113;-75
2023/05/24 10:30:33;;;;;;;13.77;3.13;;;;;;;;;;4972129;28;25064;-71
2023/05/24 10:33:00;;;;;;;14.32;4.18;;;;;;;;;;4974847;28;25069;-76
2023/05/24 10:35:27;;;;;;;11.93;3.60;;;;;;;;;;4980216;28;25099;-71
2023/05/24 10:37:53;;;;;;;11.35;3.20;;;;;;;;;;4974927;28;25085;-71
2023/05/24 10:40:20;;;;;;;16.30;3.58;;;;;;;;;;4976100;28;25062;-71
2023/05/24 10:42:46;;;;;;;10.07;3.08;;;;;;;;;;4974887;28;25132;-71
2023/05/24 10:45:30;;;;;;;15.48;4.45;;;;;;;;;;4975622;28;25069;-72
2023/05/24 10:47:56;;;;;;;8.90;3.53;;;;;;;;;;4972385;28;25073;-71
2023/05/24 10:50:22;;;;;;;13.82;3.10;;;;;;;;;;4973839;28;25044;-71
2023/05/24 10:52:49;;;;;;;12.43;3.15;;;;;;;;;;4974504;28;25158;-72
2023/05/24 10:55:15;;;;;;;11.48;3.40;;;;;;;;;;4975132;28;25111;-73
2023/05/24 10:57:41;;;;;;;10.40;3.28;;;;;;;;;;4977751;28;25097;-70
2023/05/24 11:00:16;;;;;;;14.40;3.65;;;;;;;;;;4980865;28;25107;-72
2023/05/24 11:02:42;;;;;;;13.43;3.88;;;;;;;;;;4977599;28;25067;-71
2023/05/24 11:05:08;;;;;;;10.93;3.88;;;;;;;;;;4977717;28;25063;-71
2023/05/24 11:07:41;;;;;;;12.38;3.10;;;;;;;;;;4979273;28;25123;-70
2023/05/24 11:10:09;;;;;;;8.43;3.42;;;;;;;;;;4976561;28;25081;-74
2023/05/24 11:12:38;;;;;;;10.45;3.58;;;;;;;;;;4977298;28;25171;-72
2023/05/24 11:15:08;;;;;;;12.48;3.10;;;;;;;;;;4975990;28;25066;-74
2023/05/24 11:17:54;;;;;;;12.75;4.60;;;;;;;;;;4971572;28;25058;-71
2023/05/24 11:20:20;;;;;;;14.57;3.60;;;;;;;;;;4974056;28;25061;-74
2023/05/24 11:22:46;;;;;;;9.15;3.33;;;;;;;;;;4974397;28;25147;-72
2023/05/24 11:25:12;;;;;;;15.52;3.45;;;;;;;;;;4972790;28;25458;-71
2023/05/24 11:27:43;;;;;;;13.48;3.33;;;;;;;;;;4971442;28;25099;-72
2023/05/24 11:30:11;;;;;;;13.23;3.60;;;;;;;;;;4973898;28;25070;-70
2023/05/24 11:32:41;;;;;;;13.88;3.40;;;;;;;;;;4975433;28;25133;-71
2023/05/24 11:35:10;;;;;;;13.77;3.83;;;;;;;;;;4971858;28;25151;-72
2023/05/24 11:37:37;;;;;;;14.20;3.60;;;;;;;;;;4970319;28;25106;-71
2023/05/24 11:40:09;;;;;;;12.80;3.78;;;;;;;;;;4971998;28;25059;-71
2023/05/24 11:42:38;;;;;;;18.73;4.70;;;;;;;;;;4971301;28;25058;-72
2023/05/24 11:45:05;;;;;;;14.07;3.25;;;;;;;;;;4974642;28;25095;-72
2023/05/24 11:47:35;;;;;;;10.82;3.47;;;;;;;;;;4972739;28;25058;-72
2023/05/24 11:50:02;;;;;;;16.48;4.80;;;;;;;;;;4972046;28;25073;-73
2023/05/24 11:52:28;;;;;;;13.98;3.67;;;;;;;;;;4972085;28;25080;-72
2023/05/24 11:54:54;;;;;;;10.70;4.20;;;;;;;;;;4972999;28;25077;-72
2023/05/24 11:57:30;;;;;;;12.52;3.58;;;;;;;;;;4972317;28;25094;-73
2023/05/24 11:59:57;;;;;;;10.65;3.90;;;;;;;;;;4975300;28;25145;-72
2023/05/24 12:02:23;;;;;;;13.63;4.22;;;;;;;;;;4973843;28;25054;-73
2023/05/24 12:04:49;;;;;;;11.13;3.85;;;;;;;;;;4974623;28;25057;-72
2023/05/24 12:07:16;;;;;;;13.23;3.25;;;;;;;;;;4973930;28;25073;-72
2023/05/24 12:09:42;;;;;;;18.35;4.18;;;;;;;;;;4982272;28;25120;-72
2023/05/24 12:12:08;;;;;;;12.82;3.83;;;;;;;;;;4978015;28;25059;-73
2023/05/24 12:14:35;;;;;;;14.57;4.05;;;;;;;;;;4981624;28;25058;-72
2023/05/24 12:17:01;;;;;;;11.60;3.67;;;;;;;;;;4980364;28;25093;-74
2023/05/24 12:19:33;;;;;;;17.98;3.60;;;;;;;;;;4981313;28;25071;-72
2023/05/24 12:21:59;;;;;;;11.02;3.42;;;;;;;;;;4971615;28;25039;-71
2023/05/24 12:24:26;;;;;;;15.00;4.30;;;;;;;;;;4971058;28;25089;-74
2023/05/24 12:26:57;;;;;;;14.52;4.38;;;;;;;;;;4976362;28;25087;-72
2023/05/24 12:29:23;;;;;;;11.60;3.58;;;;;;;;;;4975491;28;25062;-76
2023/05/24 12:31:49;;;;;;;15.00;4.10;;;;;;;;;;4978652;28;25113;-73
2023/05/24 12:34:16;;;;;;;14.25;3.55;;;;;;;;;;4971266;28;25081;-70
2023/05/24 12:36:43;;;;;;;15.45;3.70;;;;;;;;;;4971025;28;25063;-72
2023/05/24 12:39:33;;;;;;;11.98;4.25;;;;;;;;;;4969024;28;25146;-74
2023/05/24 12:42:03;;;;;;;12.82;3.53;;;;;;;;;;4968423;28;25136;-72
2023/05/24 12:44:34;;;;;;;13.75;3.53;;;;;;;;;;4960106;28;25143;-71
2023/05/24 12:47:00;;;;;;;7.60;3.22;;;;;;;;;;4962102;28;25073;-73
2023/05/24 12:49:27;;;;;;;15.38;4.43;;;;;;;;;;4963032;28;25151;-71
2023/05/24 12:51:54;;;;;;;14.98;3.78;;;;;;;;;;4970619;28;25072;-72
2023/05/24 12:54:22;;;;;;;16.20;3.78;;;;;;;;;;4960345;28;25156;-72
2023/05/24 12:56:48;;;;;;;9.95;3.80;;;;;;;;;;4960732;28;25066;-71
2023/05/24 12:59:14;;;;;;;18.17;3.53;;;;;;;;;;4960013;28;25089;-72
2023/05/24 13:01:41;;;;;;;8.57;4.13;;;;;;;;;;4960845;28;25098;-72
2023/05/24 13:04:07;;;;;;;7.47;3.28;;;;;;;;;;4960811;28;25063;-75
2023/05/24 13:06:33;;;;;;;19.30;5.03;;;;;;;;;;4963585;28;25065;-72
2023/05/24 13:08:59;;;;;;;14.93;4.50;;;;;;;;;;4964661;28;25147;-72
2023/05/24 13:11:26;;;;;;;15.85;4.20;;;;;;;;;;4961255;28;25100;-73
2023/05/24 13:13:52;;;;;;;15.13;5.93;;;;;;;;;;4962792;28;25062;-71
2023/05/24 13:16:18;;;;;;;16.35;4.85;;;;;;;;;;4962910;28;25105;-70
2023/05/24 13:18:45;;;;;;;13.77;4.13;;;;;;;;;;4962675;28;25119;-74
2023/05/24 13:21:11;;;;;;;17.45;3.70;;;;;;;;;;4961480;28;25069;-72
2023/05/24 13:23:38;;;;;;;10.15;3.22;;;;;;;;;;4960430;28;25064;-71
2023/05/24 13:26:05;;;;;;;17.38;4.25;;;;;;;;;;4960061;28;25055;-73
2023/05/24 13:28:31;;;;;;;13.73;4.15;;;;;;;;;;4960317;28;25063;-71
2023/05/24 13:30:57;;;;;;;13.95;4.20;;;;;;;;;;4966942;28;25068;-72
2023/05/24 13:33:23;;;;;;;14.57;4.43;;;;;;;;;;4958715;28;25148;-72
2023/05/24 13:35:49;;;;;;;18.90;5.65;;;;;;;;;;4962046;28;25063;-71
2023/05/24 13:38:15;;;;;;;16.13;4.57;;;;;;;;;;4966774;28;25069;-71
2023/05/24 13:40:41;;;;;;;15.57;3.97;;;;;;;;;;4975083;28;25065;-71
2023/05/24 13:43:07;;;;;;;18.48;4.50;;;;;;;;;;4978936;28;25059;-72
2023/05/24 13:45:33;;;;;;;16.20;5.03;;;;;;;;;;4976475;28;25053;-73
2023/05/24 13:48:02;;;;;;;10.80;3.80;;;;;;;;;;4978760;28;25103;-72
2023/05/24 13:50:33;;;;;;;18.60;4.38;;;;;;;;;;4981869;28;25076;-74
2023/05/24 13:53:02;;;;;;;9.73;3.85;;;;;;;;;;4975468;28;25100;-73
2023/05/24 13:55:33;;;;;;;13.05;3.88;;;;;;;;;;4970466;28;25093;-74
2023/05/24 13:58:00;;;;;;;13.05;3.88;;;;;;;;;;4964616;28;25055;-75
2023/05/24 14:00:26;;;;;;;16.30;4.28;;;;;;;;;;4960934;28;25077;-73
2023/05/24 14:02:52;;;;;;;15.05;4.43;;;;;;;;;;4960125;28;25071;-72
2023/05/24 14:05:19;;;;;;;16.90;4.90;;;;;;;;;;4960967;28;25078;-73
2023/05/24 14:07:45;;;;;;;11.70;4.35;;;;;;;;;;4958823;28;25070;-72
2023/05/24 14:10:11;;;;;;;15.07;3.50;;;;;;;;;;4961517;28;25068;-73
2023/05/24 14:12:38;;;;;;;13.50;3.85;;;;;;;;;;4965956;28;25077;-73
2023/05/24 14:15:05;;;;;;;14.13;4.53;;;;;;;;;;4975531;28;25085;-73
2023/05/24 14:17:31;;;;;;;14.68;4.80;;;;;;;;;;4970873;28;25142;-72
2023/05/24 14:19:57;;;;;;;15.55;4.43;;;;;;;;;;4975596;28;25085;-72
2023/05/24 14:22:24;;;;;;;15.23;4.25;;;;;;;;;;4978234;28;25097;-72
2023/05/24 14:24:50;;;;;;;15.70;5.05;;;;;;;;;;4977477;28;25064;-74
2023/05/24 14:27:16;;;;;;;12.75;3.70;;;;;;;;;;4976230;28;25085;-72
2023/05/24 14:29:42;;;;;;;24.77;4.43;;;;;;;;;;4970516;28;25082;-76